Time;durP1;ratioP1;P1;durP2;ratioP2;P2;SDS_P1;SDS_P2;PMS_P1;PMS_P2;Temp;Humidity;BMP_temperature;BMP_pressure;BME280_temperature;BME280_humidity;BME280_pressure;Samples;Min_cycle;Max_cycle;Signal;HPM_P1;HPM_P2
2021/12/11 00:01:57;;;;;;;29.65;16.58;;;;;;;-2.11;100.00;96970.53;10383179;28;20057;-58
2021/12/11 00:07:03;;;;;;;28.73;16.38;;;;;;;-2.13;100.00;96969.81;10382101;28;20402;-56
2021/12/11 00:12:13;;;;;;;28.30;15.68;;;;;;;-2.18;100.00;96976.31;10385367;28;20489;-58
2021/12/11 00:17:21;;;;;;;31.33;17.25;;;;;;;-2.21;100.00;96973.03;10379575;28;20047;-59
2021/12/11 00:22:28;;;;;;;28.45;16.38;;;;;;;-2.28;100.00;96977.09;10380698;28;20055;-59
2021/12/11 00:27:34;;;;;;;31.17;17.77;;;;;;;-2.32;100.00;96989.69;10383536;28;20050;-61
2021/12/11 00:32:38;;;;;;;30.83;17.20;;;;;;;-2.38;100.00;97003.31;10377961;28;20573;-60
2021/12/11 00:37:41;;;;;;;29.92;18.05;;;;;;;-2.44;100.00;97004.63;10377628;28;20068;-61
2021/12/11 00:42:50;;;;;;;35.38;18.98;;;;;;;-2.49;100.00;97020.78;10378570;28;20049;-56
2021/12/11 00:47:57;;;;;;;33.65;19.38;;;;;;;-2.53;100.00;97021.97;10376098;28;20121;-57
2021/12/11 00:53:07;;;;;;;37.90;20.13;;;;;;;-2.56;100.00;97030.13;10395305;28;20057;-60
2021/12/11 00:58:15;;;;;;;39.13;21.30;;;;;;;-2.60;100.00;97041.84;10379480;28;20123;-61
2021/12/11 01:03:21;;;;;;;41.67;22.20;;;;;;;-2.61;100.00;97055.97;10380065;28;20713;-58
2021/12/11 01:08:28;;;;;;;38.72;20.73;;;;;;;-2.63;100.00;97060.53;10377797;28;20510;-60
2021/12/11 01:13:37;;;;;;;37.50;21.48;;;;;;;-2.63;100.00;97069.28;10376170;28;20053;-59
2021/12/11 01:18:43;;;;;;;41.88;21.63;;;;;;;-2.61;100.00;97077.06;10377944;28;20053;-60
2021/12/11 01:24:09;;;;;;;35.35;20.58;;;;;;;-2.60;100.00;97083.22;10378370;28;20429;-59
2021/12/11 01:29:13;;;;;;;39.22;21.17;;;;;;;-2.59;100.00;97096.25;10377986;28;20199;-58
2021/12/11 01:34:17;;;;;;;37.90;18.92;;;;;;;-2.59;100.00;97105.97;10376566;28;20057;-58
2021/12/11 01:39:24;;;;;;;35.50;19.27;;;;;;;-2.60;100.00;97109.56;10380307;28;20120;-58
2021/12/11 01:44:32;;;;;;;39.83;21.30;;;;;;;-2.60;100.00;97115.66;10375988;28;20082;-61
2021/12/11 01:49:35;;;;;;;41.17;20.83;;;;;;;-2.59;100.00;97122.63;10377872;28;20785;-57
2021/12/11 01:54:43;;;;;;;37.47;19.92;;;;;;;-2.55;100.00;97128.50;10374343;28;20414;-59
2021/12/11 01:59:53;;;;;;;34.65;20.25;;;;;;;-2.55;100.00;97132.00;10378155;28;21468;-58
2021/12/11 02:04:57;;;;;;;33.85;18.55;;;;;;;-2.55;100.00;97141.69;10376037;28;20064;-59
2021/12/11 02:10:01;;;;;;;36.50;18.33;;;;;;;-2.57;100.00;97144.47;10370904;28;20071;-57
2021/12/11 02:15:08;;;;;;;36.25;19.38;;;;;;;-2.57;100.00;97156.78;10375475;28;20187;-61
2021/12/11 02:20:15;;;;;;;35.13;18.33;;;;;;;-2.56;100.00;97164.59;10378730;28;20049;-56
2021/12/11 02:25:26;;;;;;;34.88;20.40;;;;;;;-2.56;100.00;97175.16;10374742;28;20053;-61
2021/12/11 02:30:34;;;;;;;37.55;20.02;;;;;;;-2.54;100.00;97173.25;10378541;28;20049;-61
2021/12/11 02:35:43;;;;;;;36.58;19.42;;;;;;;-2.51;100.00;97196.75;10376329;28;20486;-56
2021/12/11 02:40:51;;;;;;;33.15;18.25;;;;;;;-2.59;100.00;97206.19;10377568;28;20049;-61
2021/12/11 02:45:59;;;;;;;29.58;18.00;;;;;;;-2.68;100.00;97202.38;10376937;28;20522;-59
2021/12/11 02:51:09;;;;;;;34.60;20.38;;;;;;;-2.78;100.00;97218.00;10378224;28;20522;-63
2021/12/11 02:56:17;;;;;;;35.08;19.75;;;;;;;-2.80;100.00;97227.81;10373931;28;20049;-59
2021/12/11 03:01:26;;;;;;;39.70;20.75;;;;;;;-2.85;100.00;97233.41;10384064;28;20052;-62
2021/12/11 03:06:38;;;;;;;32.85;17.30;;;;;;;-3.00;100.00;97255.56;10385586;28;20367;-60
2021/12/11 03:11:42;;;;;;;29.77;17.90;;;;;;;-3.15;100.00;97250.38;10384984;28;20053;-60
2021/12/11 03:16:48;;;;;;;34.65;18.60;;;;;;;-3.34;100.00;97261.31;10382576;28;20056;-58
2021/12/11 03:21:53;;;;;;;31.08;19.00;;;;;;;-3.42;100.00;97275.00;10385537;28;20105;-62
2021/12/11 03:26:59;;;;;;;35.83;18.55;;;;;;;-3.51;100.00;97278.25;10381290;28;20087;-57
2021/12/11 03:32:05;;;;;;;36.33;19.92;;;;;;;-3.60;100.00;97278.84;10388612;28;20395;-56
2021/12/11 03:37:12;;;;;;;35.53;19.20;;;;;;;-3.63;100.00;97294.84;10440728;28;20025;-64
2021/12/11 03:42:20;;;;;;;36.00;19.38;;;;;;;-3.69;100.00;97300.50;10451522;28;20048;-64
2021/12/11 03:47:26;;;;;;;44.72;22.63;;;;;;;-3.79;100.00;97314.25;10385367;28;20054;-60
2021/12/11 03:52:30;;;;;;;53.72;27.42;;;;;;;-3.83;100.00;97320.69;10374149;28;20156;-62
2021/12/11 03:57:37;;;;;;;54.40;27.88;;;;;;;-3.84;100.00;97324.25;10379743;28;20052;-59
2021/12/11 04:02:43;;;;;;;66.63;32.53;;;;;;;-3.81;100.00;97346.88;10379586;28;20068;-58
2021/12/11 04:07:50;;;;;;;61.40;28.77;;;;;;;-3.79;100.00;97355.53;10380055;28;20059;-60
2021/12/11 04:12:55;;;;;;;73.30;32.50;;;;;;;-3.77;100.00;97378.16;10382111;28;20041;-59
2021/12/11 04:17:58;;;;;;;59.55;29.35;;;;;;;-3.77;100.00;97388.69;10385469;28;20056;-56
2021/12/11 04:23:01;;;;;;;65.88;29.50;;;;;;;-3.76;100.00;97389.53;10382695;28;20154;-58
2021/12/11 04:28:06;;;;;;;50.20;25.38;;;;;;;-3.79;100.00;97393.22;10381538;28;20052;-58
2021/12/11 04:33:09;;;;;;;43.20;23.90;;;;;;;-3.84;100.00;97402.34;10378804;28;20060;-64
2021/12/11 04:38:15;;;;;;;45.10;24.30;;;;;;;-3.87;100.00;97417.38;10378202;28;20057;-60
2021/12/11 04:43:22;;;;;;;44.45;23.65;;;;;;;-3.89;100.00;97419.28;10380050;28;20049;-58
2021/12/11 04:48:35;;;;;;;44.78;23.20;;;;;;;-3.90;100.00;97421.97;10377986;28;20098;-54
2021/12/11 04:53:51;;;;;;;60.28;29.20;;;;;;;-3.91;100.00;97433.44;10379435;28;20045;-57
2021/12/11 04:59:15;;;;;;;77.68;32.60;;;;;;;-3.89;100.00;97453.47;10379435;28;20121;-57
2021/12/11 05:04:41;;;;;;;69.70;31.23;;;;;;;-3.92;100.00;97458.06;10377583;28;20049;-56
2021/12/11 05:09:54;;;;;;;66.35;29.45;;;;;;;-3.94;100.00;97467.84;10379749;28;20486;-56
2021/12/11 05:15:12;;;;;;;86.18;33.22;;;;;;;-3.94;100.00;97475.75;10380698;28;20069;-55
2021/12/11 05:20:19;;;;;;;88.10;34.15;;;;;;;-3.95;100.00;97489.84;10392256;28;20359;-60
2021/12/11 05:25:22;;;;;;;83.10;32.60;;;;;;;-3.98;100.00;97492.66;10377477;28;20064;-58
2021/12/11 05:30:32;;;;;;;80.38;32.22;;;;;;;-4.03;100.00;97509.56;10379043;28;20038;-57
2021/12/11 05:35:39;;;;;;;85.15;36.60;;;;;;;-4.00;100.00;97507.69;10376480;28;20046;-60
2021/12/11 05:40:45;;;;;;;99.72;36.15;;;;;;;-3.99;100.00;97512.84;10379785;28;20474;-60
2021/12/11 05:45:50;;;;;;;107.70;37.03;;;;;;;-3.97;100.00;97518.84;10375997;28;20045;-60
2021/12/11 05:50:56;;;;;;;91.63;35.40;;;;;;;-3.92;100.00;97531.75;10380176;28;20042;-58
2021/12/11 05:56:04;;;;;;;69.45;30.17;;;;;;;-3.92;100.00;97548.38;10377736;28;20087;-57
2021/12/11 06:01:09;;;;;;;60.05;29.08;;;;;;;-3.96;100.00;97557.38;10375781;28;20049;-58
2021/12/11 06:06:13;;;;;;;66.13;29.48;;;;;;;-3.95;100.00;97576.66;10378330;28;20057;-58
2021/12/11 06:11:17;;;;;;;58.58;28.75;;;;;;;-3.97;100.00;97582.00;10376555;28;20523;-58
2021/12/11 06:16:22;;;;;;;53.63;26.27;;;;;;;-3.97;100.00;97587.28;10377412;28;20050;-57
2021/12/11 06:21:25;;;;;;;49.90;25.10;;;;;;;-3.98;100.00;97611.06;10374838;28;20056;-59
2021/12/11 06:26:29;;;;;;;49.63;26.67;;;;;;;-4.00;100.00;97615.56;10378530;28;20050;-65
2021/12/11 06:31:34;;;;;;;50.97;26.10;;;;;;;-4.01;100.00;97633.13;10377802;28;20068;-55
2021/12/11 06:36:38;;;;;;;51.70;26.27;;;;;;;-4.02;100.00;97640.16;10388785;28;21036;-58
2021/12/11 06:41:44;;;;;;;48.90;25.40;;;;;;;-4.00;100.00;97649.75;10383277;28;20063;-62
2021/12/11 06:46:53;;;;;;;49.05;26.40;;;;;;;-3.98;100.00;97661.03;10383230;28;20135;-59
2021/12/11 06:51:58;;;;;;;48.05;25.15;;;;;;;-3.99;100.00;97662.81;10384534;28;20135;-60
2021/12/11 06:57:01;;;;;;;57.13;27.15;;;;;;;-4.02;100.00;97678.78;10385469;28;20045;-59
2021/12/11 07:02:06;;;;;;;58.70;28.52;;;;;;;-4.03;100.00;97693.72;10385492;28;20046;-61
2021/12/11 07:07:10;;;;;;;62.85;29.92;;;;;;;-4.06;100.00;97704.41;10383538;28;20049;-63
2021/12/11 07:12:13;;;;;;;74.65;34.75;;;;;;;-4.08;100.00;97716.81;10380884;28;20514;-60
2021/12/11 07:17:18;;;;;;;77.18;35.67;;;;;;;-4.08;100.00;97729.13;10385558;28;20046;-59
2021/12/11 07:22:21;;;;;;;81.85;35.70;;;;;;;-4.09;100.00;97744.06;10385093;28;20045;-59
2021/12/11 07:27:25;;;;;;;84.20;34.90;;;;;;;-4.12;100.00;97746.84;10385461;28;20045;-61
2021/12/11 07:32:30;;;;;;;89.18;35.60;;;;;;;-4.13;100.00;97774.09;10388381;28;20044;-61
2021/12/11 07:37:33;;;;;;;75.32;34.03;;;;;;;-4.13;100.00;97787.25;10386630;28;20137;-57
2021/12/11 07:42:37;;;;;;;61.55;30.77;;;;;;;-4.14;100.00;97798.69;10382354;28;20115;-57
2021/12/11 07:47:41;;;;;;;70.72;32.33;;;;;;;-4.14;100.00;97806.59;10381287;28;20174;-56
2021/12/11 07:52:45;;;;;;;67.65;31.35;;;;;;;-4.17;100.00;97825.16;10384294;28;20049;-59
2021/12/11 07:57:49;;;;;;;55.17;28.75;;;;;;;-4.17;100.00;97825.16;10381430;28;20050;-58
2021/12/11 08:02:55;;;;;;;51.63;27.45;;;;;;;-4.14;100.00;97832.06;10380143;28;20136;-60
2021/12/11 08:08:01;;;;;;;57.40;29.23;;;;;;;-4.15;100.00;97846.16;10379397;28;20434;-59
2021/12/11 08:13:06;;;;;;;62.10;28.40;;;;;;;-4.14;100.00;97853.09;10384240;28;20056;-60
2021/12/11 08:18:15;;;;;;;54.08;26.95;;;;;;;-4.09;100.00;97867.72;10379912;28;20045;-60
2021/12/11 08:23:20;;;;;;;48.92;27.60;;;;;;;-4.05;100.00;97877.09;10384778;28;20054;-59
2021/12/11 08:28:27;;;;;;;47.05;24.38;;;;;;;-4.03;100.00;97887.56;10382755;28;20053;-61
2021/12/11 08:33:32;;;;;;;51.63;27.45;;;;;;;-3.98;100.00;97911.00;10384081;28;20051;-62
2021/12/11 08:38:35;;;;;;;65.72;33.95;;;;;;;-4.00;100.00;97912.84;10381011;28;20045;-62
2021/12/11 08:43:39;;;;;;;52.30;29.60;;;;;;;-3.97;100.00;97924.06;10381949;28;20060;-63
2021/12/11 08:48:48;;;;;;;58.20;30.30;;;;;;;-3.86;100.00;97941.91;10378199;28;20045;-62
2021/12/11 08:53:51;;;;;;;51.90;28.58;;;;;;;-3.72;100.00;97943.78;10380502;28;20061;-63
2021/12/11 08:58:56;;;;;;;52.25;27.98;;;;;;;-3.58;100.00;97945.66;10379096;28;20048;-63
2021/12/11 09:04:06;;;;;;;52.40;28.25;;;;;;;-3.47;100.00;97959.06;10377456;28;20534;-61
2021/12/11 09:09:16;;;;;;;53.35;27.38;;;;;;;-3.36;100.00;97970.84;10381234;28;20192;-62
2021/12/11 09:14:24;;;;;;;60.40;30.83;;;;;;;-3.24;100.00;97972.78;10379719;28;20392;-60
2021/12/11 09:19:31;;;;;;;53.50;31.45;;;;;;;-3.10;100.00;97983.38;10380586;28;20299;-62
2021/12/11 09:24:40;;;;;;;55.83;31.98;;;;;;;-2.96;100.00;97993.16;10377718;28;20041;-63
2021/12/11 09:29:46;;;;;;;60.35;32.63;;;;;;;-2.81;100.00;98001.97;10380367;28;20044;-61
2021/12/11 09:34:54;;;;;;;64.13;35.63;;;;;;;-2.66;100.00;98015.22;10379565;28;20596;-60
2021/12/11 09:40:00;;;;;;;60.65;34.90;;;;;;;-2.54;100.00;98026.84;10380395;28;20045;-62
2021/12/11 09:45:12;;;;;;;61.67;35.92;;;;;;;-2.41;100.00;98027.00;10375298;28;20421;-63
2021/12/11 09:50:23;;;;;;;58.75;34.45;;;;;;;-2.26;100.00;98031.34;10391557;28;20053;-61
2021/12/11 09:55:31;;;;;;;67.13;38.65;;;;;;;-2.10;100.00;98041.84;10378152;28;20053;-63
2021/12/11 10:00:40;;;;;;;66.15;36.22;;;;;;;-1.97;100.00;98047.25;10379355;28;20544;-63
2021/12/11 10:05:50;;;;;;;60.28;35.03;;;;;;;-1.83;100.00;98050.88;10420349;28;20045;-60
2021/12/11 10:10:57;;;;;;;64.00;37.47;;;;;;;-1.70;100.00;98054.44;10431160;28;20038;-61
2021/12/11 10:16:02;;;;;;;60.28;33.83;;;;;;;-1.58;100.00;98066.06;10397239;28;20053;-61
2021/12/11 10:21:12;;;;;;;67.53;34.63;;;;;;;-1.48;100.00;98064.53;10381526;28;20117;-62
2021/12/11 10:26:18;;;;;;;59.30;32.08;;;;;;;-1.33;100.00;98075.94;10376853;28;20077;-62
2021/12/11 10:31:28;;;;;;;53.22;31.90;;;;;;;-1.25;100.00;98081.63;10383653;28;20095;-66
2021/12/11 10:36:35;;;;;;;44.20;26.63;;;;;;;-1.17;100.00;98072.38;10380753;28;20128;-62
2021/12/11 10:41:39;;;;;;;47.08;27.73;;;;;;;-1.10;100.00;98076.31;10381353;28;20179;-62
2021/12/11 10:46:47;;;;;;;47.47;28.25;;;;;;;-1.04;100.00;98083.88;10375806;28;20049;-62
2021/12/11 10:51:53;;;;;;;46.75;27.27;;;;;;;-0.93;100.00;98089.34;10380418;28;20073;-62
2021/12/11 10:56:56;;;;;;;45.00;27.58;;;;;;;-0.88;100.00;98099.63;10378449;28;20046;-62
2021/12/11 11:02:05;;;;;;;48.63;29.95;;;;;;;-0.82;100.00;98104.50;10376677;28;20053;-63
2021/12/11 11:07:09;;;;;;;50.42;29.65;;;;;;;-0.76;100.00;98105.91;10378685;28;20878;-62
2021/12/11 11:12:17;;;;;;;44.30;28.17;;;;;;;-0.71;100.00;98109.13;10377713;28;20045;-61
2021/12/11 11:17:27;;;;;;;47.20;27.52;;;;;;;-0.63;100.00;98112.13;10376933;28;20060;-61
2021/12/11 11:22:35;;;;;;;49.28;30.40;;;;;;;-0.51;100.00;98123.72;10375295;28;20425;-59
2021/12/11 11:27:41;;;;;;;42.55;26.42;;;;;;;-0.43;100.00;98133.81;10376245;28;20053;-59
2021/12/11 11:32:45;;;;;;;47.25;25.17;;;;;;;-0.38;100.00;98134.34;10374728;28;20912;-60
2021/12/11 11:37:51;;;;;;;40.60;25.88;;;;;;;-0.30;100.00;98144.44;10374902;28;20049;-61
2021/12/11 11:42:57;;;;;;;39.85;25.63;;;;;;;-0.22;100.00;98143.94;10375643;28;20054;-62
2021/12/11 11:48:01;;;;;;;39.22;25.02;;;;;;;-0.12;100.00;98157.44;10377563;28;20041;-62
2021/12/11 11:53:06;;;;;;;41.80;25.10;;;;;;;-0.01;100.00;98170.84;10376908;28;20041;-66
2021/12/11 11:58:09;;;;;;;63.97;38.42;;;;;;;0.05;100.00;98182.81;10373696;28;20607;-62
2021/12/11 12:03:17;;;;;;;43.28;27.75;;;;;;;0.05;100.00;98183.66;10372933;28;20053;-63
2021/12/11 12:08:22;;;;;;;43.05;26.98;;;;;;;0.07;100.00;98205.59;10374301;28;20054;-63
2021/12/11 12:13:27;;;;;;;43.40;26.65;;;;;;;0.10;100.00;98207.19;10377270;28;20045;-62
2021/12/11 12:18:33;;;;;;;43.20;27.42;;;;;;;0.07;100.00;98212.69;10376710;28;20077;-63
2021/12/11 12:23:38;;;;;;;46.90;28.85;;;;;;;0.12;100.00;98216.72;10375399;28;20127;-59
2021/12/11 12:28:41;;;;;;;40.75;27.08;;;;;;;0.24;100.00;98225.69;10375739;28;20049;-62
2021/12/11 12:33:48;;;;;;;47.60;28.77;;;;;;;0.41;100.00;98236.97;10375612;28;20093;-64
2021/12/11 12:38:52;;;;;;;42.88;26.38;;;;;;;0.49;100.00;98234.66;10372869;28;20115;-64
2021/12/11 12:44:17;;;;;;;49.25;28.92;;;;;;;0.64;100.00;98245.22;10373984;28;20046;-64
2021/12/11 12:49:38;;;;;;;57.95;32.55;;;;;;;0.74;100.00;98255.06;10377609;28;20520;-64
2021/12/11 12:54:41;;;;;;;42.10;26.33;;;;;;;0.75;100.00;98262.06;10375163;28;20045;-63
2021/12/11 12:59:55;;;;;;;41.15;26.13;;;;;;;0.86;100.00;98273.75;10378350;28;20048;-65
2021/12/11 13:05:08;;;;;;;34.58;23.13;;;;;;;0.96;100.00;98281.94;10372252;28;20089;-64
2021/12/11 13:10:32;;;;;;;35.42;22.80;;;;;;;1.06;100.00;98291.81;10371296;28;20038;-63
2021/12/11 13:15:39;;;;;;;37.58;23.80;;;;;;;1.06;100.00;98302.44;10374137;28;20050;-62
2021/12/11 13:20:49;;;;;;;36.17;24.60;;;;;;;1.05;100.00;98310.50;10375055;28;20053;-62
2021/12/11 13:25:56;;;;;;;34.53;23.27;;;;;;;1.01;100.00;98316.97;10374352;28;20041;-62
2021/12/11 13:31:08;;;;;;;36.78;25.17;;;;;;;0.94;100.00;98318.34;10374109;28;20053;-63
2021/12/11 13:36:14;;;;;;;37.42;25.35;;;;;;;0.86;100.00;98335.63;10371928;28;20073;-63
2021/12/11 13:41:22;;;;;;;42.33;25.45;;;;;;;0.84;100.00;98337.53;10375256;28;20546;-63
2021/12/11 13:46:49;;;;;;;40.13;25.25;;;;;;;0.81;100.00;98345.69;10381578;28;20057;-64
2021/12/11 13:51:56;;;;;;;41.03;26.05;;;;;;;0.79;100.00;98352.88;10378833;28;20057;-63
2021/12/11 13:57:05;;;;;;;42.85;26.40;;;;;;;0.79;100.00;98362.66;10373882;28;20460;-64
2021/12/11 14:02:09;;;;;;;40.10;26.88;;;;;;;0.77;100.00;98370.69;10376822;28;20342;-62
2021/12/11 14:07:19;;;;;;;43.65;28.10;;;;;;;0.76;100.00;98369.84;10373322;28;20053;-63
2021/12/11 14:12:25;;;;;;;42.25;27.35;;;;;;;0.76;100.00;98374.31;10367904;28;20049;-63
2021/12/11 14:17:29;;;;;;;40.83;27.85;;;;;;;0.78;100.00;98385.66;10371173;28;20061;-64
2021/12/11 14:22:36;;;;;;;44.50;28.35;;;;;;;0.77;100.00;98394.56;10372079;28;20055;-64
2021/12/11 14:27:41;;;;;;;42.83;26.77;;;;;;;0.77;100.00;98391.91;10371230;28;20046;-65
2021/12/11 14:32:49;;;;;;;40.40;27.88;;;;;;;0.77;100.00;98402.50;10373153;28;20034;-64
2021/12/11 14:37:55;;;;;;;47.00;29.10;;;;;;;0.75;100.00;98404.44;10372436;28;20041;-62
2021/12/11 14:42:59;;;;;;;45.35;28.92;;;;;;;0.73;100.00;98423.06;10367989;28;20636;-65
2021/12/11 14:48:03;;;;;;;43.08;27.08;;;;;;;0.71;100.00;98424.13;10369227;28;20053;-64
2021/12/11 14:53:11;;;;;;;43.40;27.02;;;;;;;0.70;100.00;98428.59;10370523;28;20041;-64
2021/12/11 14:58:14;;;;;;;41.17;25.83;;;;;;;0.68;100.00;98429.63;10378408;28;20052;-63
2021/12/11 15:03:17;;;;;;;37.80;25.38;;;;;;;0.66;100.00;98435.03;10382053;28;20434;-62
2021/12/11 15:08:26;;;;;;;35.00;24.23;;;;;;;0.64;100.00;98450.19;10384255;28;20065;-62
2021/12/11 15:13:29;;;;;;;36.42;24.00;;;;;;;0.61;100.00;98461.84;10386049;28;20155;-62
2021/12/11 15:18:32;;;;;;;36.90;24.27;;;;;;;0.59;100.00;98460.22;10383517;28;20424;-63
2021/12/11 15:23:38;;;;;;;38.38;23.98;;;;;;;0.56;100.00;98468.41;10383828;28;20052;-61
2021/12/11 15:28:42;;;;;;;39.38;25.77;;;;;;;0.56;100.00;98482.47;10383825;28;20481;-62
2021/12/11 15:33:48;;;;;;;57.30;34.85;;;;;;;0.55;100.00;98486.06;10384161;28;20718;-63
2021/12/11 15:38:56;;;;;;;42.22;26.65;;;;;;;0.55;100.00;98494.03;10382382;28;20044;-61
2021/12/11 15:43:59;;;;;;;43.25;26.58;;;;;;;0.54;100.00;98487.03;10382674;28;20048;-63
2021/12/11 15:49:03;;;;;;;39.25;25.48;;;;;;;0.54;100.00;98502.09;10383397;28;20056;-62
2021/12/11 15:54:11;;;;;;;44.22;27.85;;;;;;;0.52;100.00;98506.63;10385495;28;20564;-62
2021/12/11 15:59:15;;;;;;;39.53;26.52;;;;;;;0.51;100.00;98513.75;10386402;28;20050;-61
2021/12/11 16:04:23;;;;;;;43.70;28.73;;;;;;;0.51;100.00;98526.13;10371447;28;20574;-61
2021/12/11 16:09:29;;;;;;;44.25;27.70;;;;;;;0.51;100.00;98529.66;10383280;28;20049;-66
2021/12/11 16:14:32;;;;;;;42.88;28.08;;;;;;;0.50;100.00;98543.84;10382689;28;20079;-63
2021/12/11 16:19:39;;;;;;;40.40;25.50;;;;;;;0.50;100.00;98556.25;10379539;28;20124;-61
2021/12/11 16:24:43;;;;;;;44.50;26.85;;;;;;;0.48;100.00;98553.69;10380511;28;20053;-61
2021/12/11 16:29:47;;;;;;;41.35;26.48;;;;;;;0.48;100.00;98559.00;10381917;28;20049;-60
2021/12/11 16:34:51;;;;;;;42.42;26.17;;;;;;;0.48;100.00;98568.72;10381110;28;20057;-62
2021/12/11 16:39:56;;;;;;;43.97;27.02;;;;;;;0.45;100.00;98575.06;10382563;28;20499;-62
2021/12/11 16:44:59;;;;;;;44.45;28.02;;;;;;;0.43;100.00;98569.00;10380437;28;20057;-62
2021/12/11 16:50:12;;;;;;;45.28;28.48;;;;;;;0.42;100.00;98575.25;10380660;28;20507;-63
2021/12/11 16:55:17;;;;;;;43.83;28.23;;;;;;;0.40;100.00;98579.81;10381076;28;20048;-63
2021/12/11 17:00:24;;;;;;;44.60;27.08;;;;;;;0.39;100.00;98588.72;10384611;28;20051;-63
2021/12/11 17:05:32;;;;;;;42.25;27.08;;;;;;;0.37;100.00;98594.09;10380574;28;20058;-62
2021/12/11 17:10:43;;;;;;;41.88;27.40;;;;;;;0.34;100.00;98609.34;10383848;28;20041;-62
2021/12/11 17:15:48;;;;;;;41.15;27.15;;;;;;;0.32;100.00;98608.56;10374054;28;20047;-63
2021/12/11 17:20:53;;;;;;;45.65;28.33;;;;;;;0.29;100.00;98615.75;10373836;28;21238;-62
2021/12/11 17:25:59;;;;;;;42.53;27.10;;;;;;;0.24;100.00;98620.50;10370593;28;20042;-63
2021/12/11 17:31:03;;;;;;;45.42;27.98;;;;;;;0.22;100.00;98629.47;10374254;28;20694;-64
2021/12/11 17:36:07;;;;;;;45.45;28.20;;;;;;;0.19;100.00;98633.16;10375630;28;20414;-63
2021/12/11 17:41:12;;;;;;;47.13;27.80;;;;;;;0.17;100.00;98644.78;10372735;28;20731;-62
2021/12/11 17:46:20;;;;;;;45.55;27.92;;;;;;;0.14;100.00;98643.19;10375204;28;20053;-60
2021/12/11 17:51:24;;;;;;;45.22;28.40;;;;;;;0.10;100.00;98653.09;10376277;28;20457;-63
2021/12/11 17:56:29;;;;;;;47.03;28.33;;;;;;;0.06;100.00;98661.31;10375588;28;20053;-63
2021/12/11 18:01:55;;;;;;;46.33;28.42;;;;;;;0.01;100.00;98658.91;10381069;28;20530;-63
2021/12/11 18:07:02;;;;;;;45.45;29.08;;;;;;;-0.04;100.00;98666.28;10376831;28;20061;-62
2021/12/11 18:12:11;;;;;;;48.78;30.02;;;;;;;-0.09;100.00;98663.91;10376794;28;20045;-61
2021/12/11 18:17:19;;;;;;;50.70;28.73;;;;;;;-0.16;100.00;98676.66;10376374;28;20152;-62
2021/12/11 19:04:04;;;;;;;46.10;25.75;;;;;;;-0.52;100.00;98736.00;10408963;28;20474;-61
2021/12/11 19:09:10;;;;;;;42.90;26.23;;;;;;;-0.54;100.00;98744.97;10381135;28;20047;-63
2021/12/11 19:14:13;;;;;;;49.33;28.25;;;;;;;-0.57;100.00;98743.31;10381548;28;20052;-63
2021/12/11 19:19:19;;;;;;;53.33;29.33;;;;;;;-0.60;100.00;98740.84;10381417;28;20048;-63
2021/12/11 19:24:26;;;;;;;56.65;31.52;;;;;;;-0.65;100.00;98751.66;10382285;28;20053;-62
2021/12/11 19:29:49;;;;;;;55.42;34.70;;;;;;;-0.67;100.00;98760.63;10379671;28;20042;-61
2021/12/11 19:34:54;;;;;;;55.00;32.75;;;;;;;-0.68;100.00;98778.31;10377909;28;20674;-63
2021/12/11 19:40:05;;;;;;;55.50;32.10;;;;;;;-0.68;100.00;98778.31;10362573;28;20053;-63
2021/12/11 19:45:10;;;;;;;51.30;28.35;;;;;;;-0.66;100.00;98781.72;10380727;28;20049;-61
2021/12/11 19:50:19;;;;;;;45.45;27.98;;;;;;;-0.64;100.00;98786.94;10380114;28;20041;-63
2021/12/11 19:55:30;;;;;;;46.97;28.85;;;;;;;-0.65;100.00;98794.00;10375781;28;20049;-63
2021/12/11 20:00:39;;;;;;;51.28;30.52;;;;;;;-0.64;100.00;98810.75;10377736;28;20506;-63
2021/12/11 20:05:47;;;;;;;52.00;30.90;;;;;;;-0.68;100.00;98809.19;10378093;28;20057;-63
2021/12/11 20:10:53;;;;;;;48.35;29.17;;;;;;;-0.72;100.00;98813.78;10380055;28;20045;-63
2021/12/11 20:15:59;;;;;;;45.60;27.33;;;;;;;-0.78;100.00;98814.97;10378793;28;20056;-63
2021/12/11 20:21:09;;;;;;;47.28;27.98;;;;;;;-0.82;100.00;98817.84;10380047;28;20041;-63
2021/12/11 20:26:14;;;;;;;50.50;29.40;;;;;;;-0.89;100.00;98829.69;10378814;28;20047;-63
2021/12/11 20:31:21;;;;;;;52.50;30.70;;;;;;;-0.94;100.00;98825.50;10378980;28;20550;-62
2021/12/11 20:36:26;;;;;;;65.65;36.38;;;;;;;-0.98;100.00;98828.38;10378226;28;20046;-63
2021/12/11 20:41:34;;;;;;;64.88;36.08;;;;;;;-1.02;100.00;98822.41;10359478;28;20057;-61
2021/12/11 20:46:37;;;;;;;60.40;34.10;;;;;;;-1.10;100.00;98837.78;10378877;28;20046;-63
2021/12/11 20:51:46;;;;;;;60.17;31.10;;;;;;;-1.12;100.00;98837.84;10358657;28;20045;-64
2021/12/11 20:56:50;;;;;;;40.65;21.90;;;;;;;-1.11;100.00;98838.69;10377799;28;20052;-63
2021/12/11 21:01:56;;;;;;;35.25;19.48;;;;;;;-1.13;100.00;98841.44;10377418;28;20045;-60
2021/12/11 21:07:04;;;;;;;35.70;20.00;;;;;;;-1.14;100.00;98844.16;10373040;28;20061;-59
2021/12/11 21:12:12;;;;;;;33.80;18.25;;;;;;;-1.16;100.00;98846.88;10357669;28;20441;-62
2021/12/11 21:17:18;;;;;;;30.48;18.42;;;;;;;-1.18;100.00;98853.19;10368068;28;20083;-62
2021/12/11 21:22:26;;;;;;;32.42;18.77;;;;;;;-1.20;100.00;98844.47;10369359;28;20049;-63
2021/12/11 21:27:32;;;;;;;33.22;19.42;;;;;;;-1.23;100.00;98850.75;10368231;28;20061;-61
2021/12/11 21:32:35;;;;;;;31.15;20.23;;;;;;;-1.28;100.00;98858.94;10369790;28;20044;-59
2021/12/11 21:37:42;;;;;;;30.33;19.75;;;;;;;-1.34;100.00;98859.22;10370646;28;20191;-59
2021/12/11 21:42:48;;;;;;;34.10;19.42;;;;;;;-1.32;100.00;98873.22;10366190;28;20041;-57
2021/12/11 21:47:56;;;;;;;30.48;17.30;;;;;;;-1.31;100.00;98874.94;10349586;28;20083;-59
2021/12/11 21:53:01;;;;;;;25.40;17.13;;;;;;;-1.34;100.00;98875.06;10369375;28;20509;-61
2021/12/11 21:58:09;;;;;;;29.48;16.38;;;;;;;-1.41;100.00;98879.78;10372635;28;20629;-57
2021/12/11 22:03:16;;;;;;;26.83;17.70;;;;;;;-1.48;100.00;98882.84;10371139;28;20041;-62
2021/12/11 22:08:21;;;;;;;32.47;18.00;;;;;;;-1.53;100.00;98887.47;10356421;28;20058;-58
2021/12/11 22:13:27;;;;;;;30.40;17.73;;;;;;;-1.55;100.00;98893.69;10384243;28;20041;-62
2021/12/11 22:18:31;;;;;;;27.42;17.45;;;;;;;-1.61;100.00;98904.56;10383927;28;20052;-58
2021/12/11 22:23:36;;;;;;;28.52;18.10;;;;;;;-1.64;100.00;98912.63;10386415;28;20418;-57
2021/12/11 22:28:44;;;;;;;30.85;18.15;;;;;;;-1.65;100.00;98918.00;10378694;28;20125;-54
2021/12/11 22:33:48;;;;;;;35.33;18.20;;;;;;;-1.67;100.00;98917.19;10364345;28;20508;-60
2021/12/11 22:38:57;;;;;;;29.20;17.55;;;;;;;-1.71;100.00;98916.50;10380649;28;20136;-57
2021/12/11 22:44:08;;;;;;;33.03;17.95;;;;;;;-1.74;100.00;98935.97;10381874;28;20075;-58
2021/12/11 22:49:16;;;;;;;29.40;18.88;;;;;;;-1.77;100.00;98948.47;10373420;28;20044;-61
2021/12/11 22:54:25;;;;;;;32.85;19.75;;;;;;;-1.80;100.00;98949.47;10375206;28;20050;-59
2021/12/11 22:59:31;;;;;;;35.47;19.88;;;;;;;-1.81;100.00;98954.78;10376113;28;20354;-62
2021/12/11 23:04:38;;;;;;;36.20;20.38;;;;;;;-1.84;100.00;98957.59;10388521;28;20054;-58
2021/12/11 23:09:47;;;;;;;34.75;19.80;;;;;;;-1.89;100.00;98945.44;10379818;28;20053;-62
2021/12/11 23:14:56;;;;;;;33.50;21.55;;;;;;;-1.92;100.00;98963.22;10377178;28;20128;-59
2021/12/11 23:20:07;;;;;;;41.35;22.05;;;;;;;-1.92;100.00;98955.31;10376616;28;20060;-60
2021/12/11 23:25:17;;;;;;;39.78;21.30;;;;;;;-1.92;100.00;98952.66;10379321;28;20208;-60
2021/12/11 23:30:26;;;;;;;42.42;23.25;;;;;;;-1.92;100.00;98958.78;10378193;28;20052;-60
2021/12/11 23:35:32;;;;;;;40.17;22.23;;;;;;;-1.92;100.00;98964.06;10379914;28;20045;-63
2021/12/11 23:40:42;;;;;;;37.50;21.27;;;;;;;-1.96;100.00;98962.50;10381603;28;20112;-58
2021/12/11 23:45:49;;;;;;;33.95;20.08;;;;;;;-1.97;100.00;98965.19;10379891;28;20060;-60